sensor_id;sensor_type;location;lat;lon;timestamp;P1;durP1;ratioP1;P2;durP2;ratioP2
1154;SDS011;566;48.414;9.118;2023-06-10T00:01:39;9.40;;;7.05;;
1154;SDS011;566;48.414;9.118;2023-06-10T00:04:05;9.20;;;7.20;;
1154;SDS011;566;48.414;9.118;2023-06-10T00:06:31;10.27;;;7.63;;
1154;SDS011;566;48.414;9.118;2023-06-10T00:09:00;10.50;;;7.13;;
1154;SDS011;566;48.414;9.118;2023-06-10T00:11:26;8.70;;;6.78;;
1154;SDS011;566;48.414;9.118;2023-06-10T00:13:52;10.07;;;7.68;;
1154;SDS011;566;48.414;9.118;2023-06-10T00:16:17;10.70;;;7.20;;
1154;SDS011;566;48.414;9.118;2023-06-10T00:18:43;12.38;;;7.55;;
1154;SDS011;566;48.414;9.118;2023-06-10T00:21:09;10.52;;;7.15;;
1154;SDS011;566;48.414;9.118;2023-06-10T00:23:35;9.90;;;7.97;;
1154;SDS011;566;48.414;9.118;2023-06-10T00:26:03;11.98;;;7.88;;
1154;SDS011;566;48.414;9.118;2023-06-10T00:28:29;12.02;;;7.72;;
1154;SDS011;566;48.414;9.118;2023-06-10T00:30:54;9.63;;;6.95;;
1154;SDS011;566;48.414;9.118;2023-06-10T00:33:20;10.40;;;7.80;;
1154;SDS011;566;48.414;9.118;2023-06-10T00:35:46;10.25;;;7.40;;
1154;SDS011;566;48.414;9.118;2023-06-10T00:38:13;10.43;;;7.90;;
1154;SDS011;566;48.414;9.118;2023-06-10T00:40:39;12.05;;;7.95;;
1154;SDS011;566;48.414;9.118;2023-06-10T00:43:08;10.15;;;8.20;;
1154;SDS011;566;48.414;9.118;2023-06-10T00:45:34;10.88;;;7.95;;
1154;SDS011;566;48.414;9.118;2023-06-10T00:48:00;10.65;;;8.10;;
1154;SDS011;566;48.414;9.118;2023-06-10T00:50:26;11.32;;;8.02;;
1154;SDS011;566;48.414;9.118;2023-06-10T00:52:53;12.30;;;8.77;;
1154;SDS011;566;48.414;9.118;2023-06-10T00:55:19;13.60;;;8.65;;
1154;SDS011;566;48.414;9.118;2023-06-10T00:57:45;10.80;;;8.15;;
1154;SDS011;566;48.414;9.118;2023-06-10T01:00:13;11.68;;;9.15;;
1154;SDS011;566;48.414;9.118;2023-06-10T01:02:40;12.07;;;8.60;;
1154;SDS011;566;48.414;9.118;2023-06-10T01:05:07;11.73;;;8.38;;
1154;SDS011;566;48.414;9.118;2023-06-10T01:13:00;10.90;;;8.57;;
1154;SDS011;566;48.414;9.118;2023-06-10T01:15:36;10.20;;;7.82;;
1154;SDS011;566;48.414;9.118;2023-06-10T01:20:30;10.57;;;8.80;;
1154;SDS011;566;48.414;9.118;2023-06-10T01:23:00;10.30;;;8.68;;
1154;SDS011;566;48.414;9.118;2023-06-10T01:25:28;10.00;;;8.45;;
1154;SDS011;566;48.414;9.118;2023-06-10T01:27:55;10.25;;;8.45;;
1154;SDS011;566;48.414;9.118;2023-06-10T01:30:30;10.77;;;9.10;;
1154;SDS011;566;48.414;9.118;2023-06-10T01:33:02;11.87;;;9.03;;
1154;SDS011;566;48.414;9.118;2023-06-10T01:35:32;10.20;;;8.90;;
1154;SDS011;566;48.414;9.118;2023-06-10T01:38:02;11.77;;;9.43;;
1154;SDS011;566;48.414;9.118;2023-06-10T01:40:29;12.70;;;9.30;;
1154;SDS011;566;48.414;9.118;2023-06-10T01:42:55;11.75;;;9.63;;
1154;SDS011;566;48.414;9.118;2023-06-10T01:45:21;11.90;;;9.18;;
1154;SDS011;566;48.414;9.118;2023-06-10T01:47:47;11.32;;;9.25;;
1154;SDS011;566;48.414;9.118;2023-06-10T01:50:12;11.68;;;9.27;;
1154;SDS011;566;48.414;9.118;2023-06-10T01:52:38;12.63;;;9.68;;
1154;SDS011;566;48.414;9.118;2023-06-10T01:55:04;13.63;;;10.13;;
1154;SDS011;566;48.414;9.118;2023-06-10T01:57:29;11.95;;;10.00;;
1154;SDS011;566;48.414;9.118;2023-06-10T01:59:55;14.25;;;10.07;;
1154;SDS011;566;48.414;9.118;2023-06-10T02:02:21;13.63;;;10.90;;
1154;SDS011;566;48.414;9.118;2023-06-10T02:04:47;12.20;;;9.85;;
1154;SDS011;566;48.414;9.118;2023-06-10T02:07:12;12.73;;;9.90;;
1154;SDS011;566;48.414;9.118;2023-06-10T02:09:38;12.50;;;9.57;;
1154;SDS011;566;48.414;9.118;2023-06-10T02:12:04;13.20;;;10.90;;
1154;SDS011;566;48.414;9.118;2023-06-10T02:14:31;11.57;;;9.80;;
1154;SDS011;566;48.414;9.118;2023-06-10T02:16:57;12.75;;;10.15;;
1154;SDS011;566;48.414;9.118;2023-06-10T02:19:23;13.20;;;10.55;;
1154;SDS011;566;48.414;9.118;2023-06-10T02:21:50;12.15;;;10.20;;
1154;SDS011;566;48.414;9.118;2023-06-10T02:24:15;12.55;;;10.80;;
1154;SDS011;566;48.414;9.118;2023-06-10T02:26:41;14.82;;;11.05;;
1154;SDS011;566;48.414;9.118;2023-06-10T02:29:06;12.25;;;10.40;;
1154;SDS011;566;48.414;9.118;2023-06-10T02:31:32;13.15;;;10.23;;
1154;SDS011;566;48.414;9.118;2023-06-10T02:34:00;14.25;;;10.60;;
1154;SDS011;566;48.414;9.118;2023-06-10T02:36:26;15.18;;;11.98;;
1154;SDS011;566;48.414;9.118;2023-06-10T02:38:52;12.40;;;11.07;;
1154;SDS011;566;48.414;9.118;2023-06-10T02:41:18;13.23;;;11.00;;
1154;SDS011;566;48.414;9.118;2023-06-10T02:43:44;11.93;;;10.40;;
1154;SDS011;566;48.414;9.118;2023-06-10T02:46:10;16.48;;;11.20;;
1154;SDS011;566;48.414;9.118;2023-06-10T02:48:42;13.40;;;11.07;;
1154;SDS011;566;48.414;9.118;2023-06-10T02:51:11;16.63;;;11.25;;
1154;SDS011;566;48.414;9.118;2023-06-10T02:53:37;11.98;;;10.30;;
1154;SDS011;566;48.414;9.118;2023-06-10T02:56:02;12.50;;;10.38;;
1154;SDS011;566;48.414;9.118;2023-06-10T02:58:28;12.63;;;10.80;;
1154;SDS011;566;48.414;9.118;2023-06-10T03:00:54;13.10;;;10.80;;
1154;SDS011;566;48.414;9.118;2023-06-10T03:03:20;15.73;;;10.65;;
1154;SDS011;566;48.414;9.118;2023-06-10T03:05:47;12.65;;;9.95;;
1154;SDS011;566;48.414;9.118;2023-06-10T03:08:13;13.00;;;10.88;;
1154;SDS011;566;48.414;9.118;2023-06-10T03:10:38;14.32;;;10.77;;
1154;SDS011;566;48.414;9.118;2023-06-10T03:13:04;14.52;;;10.65;;
1154;SDS011;566;48.414;9.118;2023-06-10T03:15:30;11.77;;;9.95;;
1154;SDS011;566;48.414;9.118;2023-06-10T03:17:57;13.50;;;10.32;;
1154;SDS011;566;48.414;9.118;2023-06-10T03:20:25;14.45;;;10.80;;
1154;SDS011;566;48.414;9.118;2023-06-10T03:22:50;17.02;;;11.57;;
1154;SDS011;566;48.414;9.118;2023-06-10T03:25:16;16.20;;;10.60;;
1154;SDS011;566;48.414;9.118;2023-06-10T03:27:42;12.52;;;10.60;;
1154;SDS011;566;48.414;9.118;2023-06-10T03:30:08;12.93;;;11.07;;
1154;SDS011;566;48.414;9.118;2023-06-10T03:32:34;14.85;;;11.00;;
1154;SDS011;566;48.414;9.118;2023-06-10T03:35:00;13.38;;;10.60;;
1154;SDS011;566;48.414;9.118;2023-06-10T03:37:26;14.98;;;10.48;;
1154;SDS011;566;48.414;9.118;2023-06-10T03:39:51;13.95;;;10.35;;
1154;SDS011;566;48.414;9.118;2023-06-10T03:42:17;13.68;;;10.80;;
1154;SDS011;566;48.414;9.118;2023-06-10T03:44:43;12.30;;;10.77;;
1154;SDS011;566;48.414;9.118;2023-06-10T03:47:08;13.07;;;11.20;;
1154;SDS011;566;48.414;9.118;2023-06-10T03:49:34;13.05;;;10.48;;
1154;SDS011;566;48.414;9.118;2023-06-10T03:52:01;12.55;;;10.10;;
1154;SDS011;566;48.414;9.118;2023-06-10T03:54:27;13.10;;;10.60;;
1154;SDS011;566;48.414;9.118;2023-06-10T03:56:52;14.35;;;11.18;;
1154;SDS011;566;48.414;9.118;2023-06-10T03:59:18;13.63;;;11.10;;
1154;SDS011;566;48.414;9.118;2023-06-10T04:01:44;13.68;;;10.95;;
1154;SDS011;566;48.414;9.118;2023-06-10T04:04:11;12.30;;;10.45;;
1154;SDS011;566;48.414;9.118;2023-06-10T04:06:41;14.02;;;10.45;;
1154;SDS011;566;48.414;9.118;2023-06-10T04:09:08;12.63;;;10.20;;
1154;SDS011;566;48.414;9.118;2023-06-10T04:11:34;12.82;;;10.52;;
1154;SDS011;566;48.414;9.118;2023-06-10T04:14:00;11.10;;;9.77;;
1154;SDS011;566;48.414;9.118;2023-06-10T04:16:26;12.65;;;10.15;;
1154;SDS011;566;48.414;9.118;2023-06-10T04:18:52;12.48;;;10.32;;
1154;SDS011;566;48.414;9.118;2023-06-10T04:21:18;14.55;;;10.70;;
1154;SDS011;566;48.414;9.118;2023-06-10T04:23:43;14.07;;;10.80;;
1154;SDS011;566;48.414;9.118;2023-06-10T04:26:09;13.38;;;10.25;;
1154;SDS011;566;48.414;9.118;2023-06-10T04:28:37;12.95;;;10.38;;
1154;SDS011;566;48.414;9.118;2023-06-10T04:31:03;13.93;;;9.88;;
1154;SDS011;566;48.414;9.118;2023-06-10T04:33:29;14.00;;;10.25;;
1154;SDS011;566;48.414;9.118;2023-06-10T04:35:58;12.30;;;9.80;;
1154;SDS011;566;48.414;9.118;2023-06-10T04:38:23;13.38;;;10.15;;
1154;SDS011;566;48.414;9.118;2023-06-10T04:40:49;11.68;;;9.65;;
1154;SDS011;566;48.414;9.118;2023-06-10T04:43:15;11.68;;;9.07;;
1154;SDS011;566;48.414;9.118;2023-06-10T04:45:41;12.00;;;9.85;;
1154;SDS011;566;48.414;9.118;2023-06-10T04:48:09;12.52;;;9.52;;
1154;SDS011;566;48.414;9.118;2023-06-10T04:50:36;12.35;;;10.13;;
1154;SDS011;566;48.414;9.118;2023-06-10T04:53:02;12.18;;;9.25;;
1154;SDS011;566;48.414;9.118;2023-06-10T04:55:27;11.63;;;9.48;;
1154;SDS011;566;48.414;9.118;2023-06-10T04:57:53;20.02;;;10.15;;
1154;SDS011;566;48.414;9.118;2023-06-10T05:00:18;11.10;;;9.30;;
1154;SDS011;566;48.414;9.118;2023-06-10T05:02:44;9.93;;;8.40;;
1154;SDS011;566;48.414;9.118;2023-06-10T05:05:10;12.25;;;8.57;;
1154;SDS011;566;48.414;9.118;2023-06-10T05:07:36;10.57;;;8.90;;
1154;SDS011;566;48.414;9.118;2023-06-10T05:10:01;10.70;;;8.82;;
1154;SDS011;566;48.414;9.118;2023-06-10T05:12:28;12.52;;;9.57;;
1154;SDS011;566;48.414;9.118;2023-06-10T05:14:53;11.02;;;8.75;;
1154;SDS011;566;48.414;9.118;2023-06-10T05:17:19;9.80;;;8.57;;
1154;SDS011;566;48.414;9.118;2023-06-10T05:19:45;12.52;;;9.00;;
1154;SDS011;566;48.414;9.118;2023-06-10T05:22:12;9.60;;;8.30;;
1154;SDS011;566;48.414;9.118;2023-06-10T05:24:38;10.77;;;8.82;;
1154;SDS011;566;48.414;9.118;2023-06-10T05:27:04;9.75;;;8.68;;
1154;SDS011;566;48.414;9.118;2023-06-10T05:29:31;11.23;;;8.60;;
1154;SDS011;566;48.414;9.118;2023-06-10T05:31:57;11.20;;;8.55;;
1154;SDS011;566;48.414;9.118;2023-06-10T05:34:25;10.18;;;8.20;;
1154;SDS011;566;48.414;9.118;2023-06-10T05:36:51;9.75;;;8.00;;
1154;SDS011;566;48.414;9.118;2023-06-10T05:39:16;9.70;;;7.95;;
1154;SDS011;566;48.414;9.118;2023-06-10T05:41:42;11.02;;;8.00;;
1154;SDS011;566;48.414;9.118;2023-06-10T05:44:07;10.98;;;9.05;;
1154;SDS011;566;48.414;9.118;2023-06-10T05:46:33;10.68;;;8.82;;
1154;SDS011;566;48.414;9.118;2023-06-10T05:48:58;11.07;;;8.52;;
1154;SDS011;566;48.414;9.118;2023-06-10T05:51:24;11.75;;;8.38;;
1154;SDS011;566;48.414;9.118;2023-06-10T05:53:50;10.80;;;8.68;;
1154;SDS011;566;48.414;9.118;2023-06-10T05:56:16;11.25;;;8.27;;
1154;SDS011;566;48.414;9.118;2023-06-10T05:58:44;10.00;;;7.95;;
1154;SDS011;566;48.414;9.118;2023-06-10T06:01:09;10.48;;;8.18;;
1154;SDS011;566;48.414;9.118;2023-06-10T06:03:35;13.00;;;8.27;;
1154;SDS011;566;48.414;9.118;2023-06-10T06:06:00;10.48;;;8.40;;
1154;SDS011;566;48.414;9.118;2023-06-10T06:08:27;10.70;;;7.72;;
1154;SDS011;566;48.414;9.118;2023-06-10T06:10:53;10.23;;;8.18;;
1154;SDS011;566;48.414;9.118;2023-06-10T06:13:18;9.55;;;8.20;;
1154;SDS011;566;48.414;9.118;2023-06-10T06:15:47;10.13;;;8.15;;
1154;SDS011;566;48.414;9.118;2023-06-10T06:18:12;8.98;;;7.88;;
1154;SDS011;566;48.414;9.118;2023-06-10T06:20:38;10.18;;;8.32;;
1154;SDS011;566;48.414;9.118;2023-06-10T06:23:03;10.10;;;8.57;;
1154;SDS011;566;48.414;9.118;2023-06-10T06:25:29;11.23;;;7.93;;
1154;SDS011;566;48.414;9.118;2023-06-10T06:27:54;11.60;;;7.97;;
1154;SDS011;566;48.414;9.118;2023-06-10T06:30:20;12.50;;;8.30;;
1154;SDS011;566;48.414;9.118;2023-06-10T06:32:46;10.18;;;9.07;;
1154;SDS011;566;48.414;9.118;2023-06-10T06:35:11;10.60;;;8.90;;
1154;SDS011;566;48.414;9.118;2023-06-10T06:37:37;13.18;;;8.52;;
1154;SDS011;566;48.414;9.118;2023-06-10T06:40:03;11.38;;;9.20;;
1154;SDS011;566;48.414;9.118;2023-06-10T06:42:29;12.13;;;8.15;;
1154;SDS011;566;48.414;9.118;2023-06-10T06:44:54;13.07;;;8.48;;
1154;SDS011;566;48.414;9.118;2023-06-10T06:47:23;10.93;;;8.27;;
1154;SDS011;566;48.414;9.118;2023-06-10T06:49:48;10.63;;;8.30;;
1154;SDS011;566;48.414;9.118;2023-06-10T06:52:17;13.25;;;8.82;;
1154;SDS011;566;48.414;9.118;2023-06-10T06:54:44;11.23;;;7.82;;
1154;SDS011;566;48.414;9.118;2023-06-10T06:57:09;11.95;;;8.73;;
1154;SDS011;566;48.414;9.118;2023-06-10T06:59:35;11.23;;;8.43;;
1154;SDS011;566;48.414;9.118;2023-06-10T07:02:02;12.27;;;8.30;;
1154;SDS011;566;48.414;9.118;2023-06-10T07:04:28;12.20;;;8.38;;
1154;SDS011;566;48.414;9.118;2023-06-10T07:06:54;13.93;;;8.75;;
1154;SDS011;566;48.414;9.118;2023-06-10T07:09:20;11.48;;;8.40;;
1154;SDS011;566;48.414;9.118;2023-06-10T07:11:46;10.75;;;8.50;;
1154;SDS011;566;48.414;9.118;2023-06-10T07:14:12;20.35;;;9.85;;
1154;SDS011;566;48.414;9.118;2023-06-10T07:16:38;10.05;;;8.68;;
1154;SDS011;566;48.414;9.118;2023-06-10T07:19:03;12.18;;;10.00;;
1154;SDS011;566;48.414;9.118;2023-06-10T07:21:29;11.82;;;8.50;;
1154;SDS011;566;48.414;9.118;2023-06-10T07:23:55;12.07;;;8.75;;
1154;SDS011;566;48.414;9.118;2023-06-10T07:26:22;10.45;;;8.15;;
1154;SDS011;566;48.414;9.118;2023-06-10T07:28:48;11.10;;;9.20;;
1154;SDS011;566;48.414;9.118;2023-06-10T07:31:14;10.63;;;8.80;;
1154;SDS011;566;48.414;9.118;2023-06-10T07:33:39;9.80;;;8.20;;
1154;SDS011;566;48.414;9.118;2023-06-10T07:36:05;12.55;;;8.60;;
1154;SDS011;566;48.414;9.118;2023-06-10T07:38:31;11.15;;;8.63;;
1154;SDS011;566;48.414;9.118;2023-06-10T07:40:57;12.68;;;8.10;;
1154;SDS011;566;48.414;9.118;2023-06-10T07:43:23;12.60;;;8.50;;
1154;SDS011;566;48.414;9.118;2023-06-10T07:45:49;12.65;;;8.40;;
1154;SDS011;566;48.414;9.118;2023-06-10T07:48:15;11.27;;;7.63;;
1154;SDS011;566;48.414;9.118;2023-06-10T07:50:41;13.65;;;9.20;;
1154;SDS011;566;48.414;9.118;2023-06-10T07:53:10;10.52;;;8.73;;
1154;SDS011;566;48.414;9.118;2023-06-10T07:55:35;9.77;;;8.18;;
1154;SDS011;566;48.414;9.118;2023-06-10T07:58:01;11.80;;;8.95;;
1154;SDS011;566;48.414;9.118;2023-06-10T08:00:27;10.52;;;8.60;;
1154;SDS011;566;48.414;9.118;2023-06-10T08:02:52;9.82;;;7.55;;
1154;SDS011;566;48.414;9.118;2023-06-10T08:05:18;9.13;;;7.80;;
1154;SDS011;566;48.414;9.118;2023-06-10T08:07:44;10.10;;;7.65;;
1154;SDS011;566;48.414;9.118;2023-06-10T08:10:10;10.68;;;9.00;;
1154;SDS011;566;48.414;9.118;2023-06-10T08:12:35;11.02;;;8.32;;
1154;SDS011;566;48.414;9.118;2023-06-10T08:15:01;10.30;;;7.57;;
1154;SDS011;566;48.414;9.118;2023-06-10T08:17:29;13.57;;;7.78;;
1154;SDS011;566;48.414;9.118;2023-06-10T08:19:55;9.43;;;7.55;;
1154;SDS011;566;48.414;9.118;2023-06-10T08:22:21;9.30;;;7.10;;
1154;SDS011;566;48.414;9.118;2023-06-10T08:24:46;8.85;;;7.25;;
1154;SDS011;566;48.414;9.118;2023-06-10T08:27:12;9.02;;;7.03;;
1154;SDS011;566;48.414;9.118;2023-06-10T08:29:39;10.05;;;6.80;;
1154;SDS011;566;48.414;9.118;2023-06-10T08:32:05;11.02;;;7.10;;
1154;SDS011;566;48.414;9.118;2023-06-10T08:34:34;9.02;;;7.03;;
1154;SDS011;566;48.414;9.118;2023-06-10T08:37:03;9.40;;;7.05;;
1154;SDS011;566;48.414;9.118;2023-06-10T08:39:28;8.05;;;5.70;;
1154;SDS011;566;48.414;9.118;2023-06-10T08:42:04;7.88;;;5.28;;
1154;SDS011;566;48.414;9.118;2023-06-10T08:44:32;9.63;;;6.15;;
1154;SDS011;566;48.414;9.118;2023-06-10T08:47:03;9.07;;;6.18;;
1154;SDS011;566;48.414;9.118;2023-06-10T08:49:34;7.40;;;6.10;;
1154;SDS011;566;48.414;9.118;2023-06-10T08:52:03;10.10;;;6.90;;
1154;SDS011;566;48.414;9.118;2023-06-10T08:54:32;11.50;;;6.45;;
1154;SDS011;566;48.414;9.118;2023-06-10T08:57:03;7.90;;;5.93;;
1154;SDS011;566;48.414;9.118;2023-06-10T08:59:33;8.35;;;6.35;;
1154;SDS011;566;48.414;9.118;2023-06-10T09:01:58;8.13;;;5.68;;
1154;SDS011;566;48.414;9.118;2023-06-10T09:04:25;7.78;;;5.60;;
1154;SDS011;566;48.414;9.118;2023-06-10T09:06:52;8.07;;;5.80;;
1154;SDS011;566;48.414;9.118;2023-06-10T09:09:19;8.52;;;5.88;;
1154;SDS011;566;48.414;9.118;2023-06-10T09:11:47;8.77;;;5.85;;
1154;SDS011;566;48.414;9.118;2023-06-10T09:14:13;8.25;;;5.88;;
1154;SDS011;566;48.414;9.118;2023-06-10T09:16:39;10.02;;;6.22;;
1154;SDS011;566;48.414;9.118;2023-06-10T09:19:06;8.82;;;6.18;;
1154;SDS011;566;48.414;9.118;2023-06-10T09:21:35;8.10;;;6.32;;
1154;SDS011;566;48.414;9.118;2023-06-10T09:24:01;10.13;;;5.53;;
1154;SDS011;566;48.414;9.118;2023-06-10T09:26:30;9.02;;;5.60;;
1154;SDS011;566;48.414;9.118;2023-06-10T09:29:07;6.57;;;5.05;;
1154;SDS011;566;48.414;9.118;2023-06-10T09:31:34;8.60;;;5.90;;
1154;SDS011;566;48.414;9.118;2023-06-10T09:34:05;9.05;;;5.13;;
1154;SDS011;566;48.414;9.118;2023-06-10T09:36:35;4.60;;;3.10;;
1154;SDS011;566;48.414;9.118;2023-06-10T09:39:04;4.80;;;3.10;;
1154;SDS011;566;48.414;9.118;2023-06-10T09:41:39;4.45;;;2.78;;
1154;SDS011;566;48.414;9.118;2023-06-10T09:44:11;5.88;;;3.17;;
1154;SDS011;566;48.414;9.118;2023-06-10T09:46:41;4.47;;;2.72;;
1154;SDS011;566;48.414;9.118;2023-06-10T09:49:10;6.07;;;2.58;;
1154;SDS011;566;48.414;9.118;2023-06-10T09:51:36;4.63;;;2.97;;
1154;SDS011;566;48.414;9.118;2023-06-10T09:54:02;5.22;;;2.78;;
1154;SDS011;566;48.414;9.118;2023-06-10T09:56:35;3.75;;;2.33;;
1154;SDS011;566;48.414;9.118;2023-06-10T09:59:01;6.03;;;2.93;;
1154;SDS011;566;48.414;9.118;2023-06-10T10:01:31;4.07;;;2.65;;
1154;SDS011;566;48.414;9.118;2023-06-10T10:03:58;4.25;;;2.60;;
1154;SDS011;566;48.414;9.118;2023-06-10T10:06:24;5.55;;;2.85;;
1154;SDS011;566;48.414;9.118;2023-06-10T10:08:51;4.45;;;2.78;;
1154;SDS011;566;48.414;9.118;2023-06-10T10:11:18;5.10;;;2.80;;
1154;SDS011;566;48.414;9.118;2023-06-10T10:13:48;4.07;;;2.33;;
1154;SDS011;566;48.414;9.118;2023-06-10T10:16:16;5.18;;;2.47;;
1154;SDS011;566;48.414;9.118;2023-06-10T10:18:55;6.10;;;2.58;;
1154;SDS011;566;48.414;9.118;2023-06-10T10:21:24;4.38;;;2.70;;
1154;SDS011;566;48.414;9.118;2023-06-10T10:26:42;4.28;;;2.75;;
1154;SDS011;566;48.414;9.118;2023-06-10T10:29:12;5.32;;;2.65;;
1154;SDS011;566;48.414;9.118;2023-06-10T10:31:50;5.15;;;2.38;;
1154;SDS011;566;48.414;9.118;2023-06-10T10:34:43;4.35;;;2.63;;
1154;SDS011;566;48.414;9.118;2023-06-10T10:37:21;6.15;;;2.55;;
1154;SDS011;566;48.414;9.118;2023-06-10T10:39:47;4.15;;;2.60;;
1154;SDS011;566;48.414;9.118;2023-06-10T10:42:13;4.47;;;2.55;;
1154;SDS011;566;48.414;9.118;2023-06-10T10:44:42;4.70;;;2.60;;
1154;SDS011;566;48.414;9.118;2023-06-10T10:47:08;4.63;;;2.47;;
1154;SDS011;566;48.414;9.118;2023-06-10T10:49:35;5.85;;;2.55;;
1154;SDS011;566;48.414;9.118;2023-06-10T10:52:02;5.47;;;2.65;;
1154;SDS011;566;48.414;9.118;2023-06-10T10:54:34;5.13;;;3.20;;
1154;SDS011;566;48.414;9.118;2023-06-10T10:57:43;4.97;;;3.03;;
1154;SDS011;566;48.414;9.118;2023-06-10T10:59:54;6.00;;;3.30;;
1154;SDS011;566;48.414;9.118;2023-06-10T11:05:14;7.15;;;3.13;;
1154;SDS011;566;48.414;9.118;2023-06-10T11:07:40;5.93;;;3.08;;
1154;SDS011;566;48.414;9.118;2023-06-10T11:10:16;4.93;;;3.20;;
1154;SDS011;566;48.414;9.118;2023-06-10T11:15:11;8.35;;;3.28;;
1154;SDS011;566;48.414;9.118;2023-06-10T11:18:06;5.40;;;3.30;;
1154;SDS011;566;48.414;9.118;2023-06-10T11:23:34;6.30;;;4.10;;
1154;SDS011;566;48.414;9.118;2023-06-10T11:26:18;4.82;;;3.42;;
1154;SDS011;566;48.414;9.118;2023-06-10T11:31:23;6.13;;;3.92;;
1154;SDS011;566;48.414;9.118;2023-06-10T11:34:03;7.15;;;4.72;;
1154;SDS011;566;48.414;9.118;2023-06-10T11:36:30;7.82;;;3.90;;
1154;SDS011;566;48.414;9.118;2023-06-10T11:38:57;5.18;;;3.40;;
1154;SDS011;566;48.414;9.118;2023-06-10T11:41:25;5.75;;;3.80;;
1154;SDS011;566;48.414;9.118;2023-06-10T11:43:52;5.93;;;3.90;;
1154;SDS011;566;48.414;9.118;2023-06-10T11:46:20;5.53;;;3.90;;
1154;SDS011;566;48.414;9.118;2023-06-10T11:48:53;4.55;;;3.45;;
1154;SDS011;566;48.414;9.118;2023-06-10T11:51:27;5.57;;;3.80;;
1154;SDS011;566;48.414;9.118;2023-06-10T11:53:54;5.32;;;3.88;;
1154;SDS011;566;48.414;9.118;2023-06-10T11:56:21;6.35;;;4.03;;
1154;SDS011;566;48.414;9.118;2023-06-10T11:58:51;5.30;;;3.90;;
1154;SDS011;566;48.414;9.118;2023-06-10T12:01:31;5.85;;;3.60;;
1154;SDS011;566;48.414;9.118;2023-06-10T12:04:02;5.47;;;3.80;;
1154;SDS011;566;48.414;9.118;2023-06-10T12:06:53;7.80;;;4.30;;
1154;SDS011;566;48.414;9.118;2023-06-10T12:09:26;5.80;;;3.92;;
1154;SDS011;566;48.414;9.118;2023-06-10T12:11:54;6.72;;;4.63;;
1154;SDS011;566;48.414;9.118;2023-06-10T12:20:03;7.25;;;4.05;;
1154;SDS011;566;48.414;9.118;2023-06-10T12:22:39;7.28;;;4.45;;
1154;SDS011;566;48.414;9.118;2023-06-10T12:25:06;7.00;;;4.38;;
1154;SDS011;566;48.414;9.118;2023-06-10T12:27:33;7.85;;;4.38;;
1154;SDS011;566;48.414;9.118;2023-06-10T12:30:00;6.85;;;4.18;;
1154;SDS011;566;48.414;9.118;2023-06-10T12:33:02;6.20;;;4.18;;
1154;SDS011;566;48.414;9.118;2023-06-10T12:35:26;5.47;;;4.00;;
1154;SDS011;566;48.414;9.118;2023-06-10T12:40:29;6.88;;;3.97;;
1154;SDS011;566;48.414;9.118;2023-06-10T12:42:56;6.30;;;3.80;;
1154;SDS011;566;48.414;9.118;2023-06-10T12:45:29;6.40;;;3.85;;
1154;SDS011;566;48.414;9.118;2023-06-10T12:48:16;5.80;;;3.83;;
1154;SDS011;566;48.414;9.118;2023-06-10T12:50:52;6.45;;;3.78;;
1154;SDS011;566;48.414;9.118;2023-06-10T12:53:22;5.50;;;3.95;;
1154;SDS011;566;48.414;9.118;2023-06-10T12:55:49;7.63;;;3.78;;
1154;SDS011;566;48.414;9.118;2023-06-10T12:58:15;6.65;;;3.80;;
1154;SDS011;566;48.414;9.118;2023-06-10T13:00:40;5.68;;;3.53;;
1154;SDS011;566;48.414;9.118;2023-06-10T13:03:09;4.47;;;3.00;;
1154;SDS011;566;48.414;9.118;2023-06-10T13:05:35;5.10;;;3.08;;
1154;SDS011;566;48.414;9.118;2023-06-10T13:08:03;6.28;;;3.88;;
1154;SDS011;566;48.414;9.118;2023-06-10T13:10:29;6.18;;;3.78;;
1154;SDS011;566;48.414;9.118;2023-06-10T13:12:55;5.47;;;3.67;;
1154;SDS011;566;48.414;9.118;2023-06-10T13:15:21;6.57;;;3.80;;
1154;SDS011;566;48.414;9.118;2023-06-10T13:17:47;7.07;;;3.85;;
1154;SDS011;566;48.414;9.118;2023-06-10T13:20:14;5.80;;;3.78;;
1154;SDS011;566;48.414;9.118;2023-06-10T13:22:41;5.10;;;3.90;;
1154;SDS011;566;48.414;9.118;2023-06-10T13:25:07;4.70;;;3.60;;
1154;SDS011;566;48.414;9.118;2023-06-10T13:27:33;5.80;;;3.88;;
1154;SDS011;566;48.414;9.118;2023-06-10T13:29:59;5.85;;;3.58;;
1154;SDS011;566;48.414;9.118;2023-06-10T13:32:24;6.05;;;3.35;;
1154;SDS011;566;48.414;9.118;2023-06-10T13:34:50;4.63;;;3.50;;
1154;SDS011;566;48.414;9.118;2023-06-10T13:37:16;5.55;;;3.33;;
1154;SDS011;566;48.414;9.118;2023-06-10T13:39:43;7.43;;;3.10;;
1154;SDS011;566;48.414;9.118;2023-06-10T13:42:08;5.45;;;3.58;;
1154;SDS011;566;48.414;9.118;2023-06-10T13:44:34;4.60;;;3.10;;
1154;SDS011;566;48.414;9.118;2023-06-10T13:47:01;5.32;;;3.17;;
1154;SDS011;566;48.414;9.118;2023-06-10T13:49:28;6.32;;;3.28;;
1154;SDS011;566;48.414;9.118;2023-06-10T13:51:54;8.65;;;3.60;;
1154;SDS011;566;48.414;9.118;2023-06-10T13:54:19;7.32;;;3.45;;
1154;SDS011;566;48.414;9.118;2023-06-10T13:56:46;7.20;;;3.30;;
1154;SDS011;566;48.414;9.118;2023-06-10T13:59:12;5.45;;;3.20;;
1154;SDS011;566;48.414;9.118;2023-06-10T14:01:37;4.50;;;2.85;;
1154;SDS011;566;48.414;9.118;2023-06-10T14:04:03;7.45;;;3.55;;
1154;SDS011;566;48.414;9.118;2023-06-10T14:06:29;4.53;;;3.30;;
1154;SDS011;566;48.414;9.118;2023-06-10T14:08:55;4.97;;;3.53;;
1154;SDS011;566;48.414;9.118;2023-06-10T14:11:21;4.80;;;3.45;;
1154;SDS011;566;48.414;9.118;2023-06-10T14:13:46;5.40;;;3.50;;
1154;SDS011;566;48.414;9.118;2023-06-10T14:16:12;5.13;;;3.40;;
1154;SDS011;566;48.414;9.118;2023-06-10T14:18:38;6.05;;;3.55;;
1154;SDS011;566;48.414;9.118;2023-06-10T14:21:03;5.03;;;3.35;;
1154;SDS011;566;48.414;9.118;2023-06-10T14:23:29;5.25;;;3.28;;
1154;SDS011;566;48.414;9.118;2023-06-10T14:25:55;7.22;;;3.60;;
1154;SDS011;566;48.414;9.118;2023-06-10T14:28:21;4.95;;;3.30;;
1154;SDS011;566;48.414;9.118;2023-06-10T14:30:46;4.78;;;3.10;;
1154;SDS011;566;48.414;9.118;2023-06-10T14:33:12;9.00;;;4.70;;
1154;SDS011;566;48.414;9.118;2023-06-10T14:35:37;6.05;;;2.75;;
1154;SDS011;566;48.414;9.118;2023-06-10T14:38:03;5.15;;;3.35;;
1154;SDS011;566;48.414;9.118;2023-06-10T14:40:29;5.90;;;3.13;;
1154;SDS011;566;48.414;9.118;2023-06-10T14:42:55;5.15;;;2.97;;
1154;SDS011;566;48.414;9.118;2023-06-10T14:45:21;4.47;;;2.88;;
1154;SDS011;566;48.414;9.118;2023-06-10T14:47:46;4.20;;;2.55;;
1154;SDS011;566;48.414;9.118;2023-06-10T14:50:13;4.72;;;2.50;;
1154;SDS011;566;48.414;9.118;2023-06-10T14:52:38;5.82;;;3.00;;
1154;SDS011;566;48.414;9.118;2023-06-10T14:55:05;5.82;;;3.00;;
1154;SDS011;566;48.414;9.118;2023-06-10T14:57:33;5.63;;;2.90;;
1154;SDS011;566;48.414;9.118;2023-06-10T14:59:59;6.82;;;3.33;;
1154;SDS011;566;48.414;9.118;2023-06-10T15:02:24;6.30;;;3.10;;
1154;SDS011;566;48.414;9.118;2023-06-10T15:04:51;7.15;;;3.40;;
1154;SDS011;566;48.414;9.118;2023-06-10T15:07:17;4.35;;;2.92;;
1154;SDS011;566;48.414;9.118;2023-06-10T15:09:42;5.00;;;3.45;;
1154;SDS011;566;48.414;9.118;2023-06-10T15:12:08;6.65;;;3.50;;
1154;SDS011;566;48.414;9.118;2023-06-10T15:14:37;5.55;;;3.30;;
1154;SDS011;566;48.414;9.118;2023-06-10T15:17:05;7.18;;;3.40;;
1154;SDS011;566;48.414;9.118;2023-06-10T15:19:30;6.15;;;3.88;;
1154;SDS011;566;48.414;9.118;2023-06-10T15:21:56;5.80;;;3.50;;
1154;SDS011;566;48.414;9.118;2023-06-10T15:24:21;6.85;;;3.78;;
1154;SDS011;566;48.414;9.118;2023-06-10T15:26:47;6.25;;;3.50;;
1154;SDS011;566;48.414;9.118;2023-06-10T15:29:12;7.93;;;3.88;;
1154;SDS011;566;48.414;9.118;2023-06-10T15:31:38;5.63;;;3.63;;
1154;SDS011;566;48.414;9.118;2023-06-10T15:34:04;5.47;;;4.00;;
1154;SDS011;566;48.414;9.118;2023-06-10T15:36:31;5.70;;;3.80;;
1154;SDS011;566;48.414;9.118;2023-06-10T15:39:04;5.85;;;4.00;;
1154;SDS011;566;48.414;9.118;2023-06-10T15:41:31;7.22;;;4.30;;
1154;SDS011;566;48.414;9.118;2023-06-10T15:43:57;7.25;;;4.00;;
1154;SDS011;566;48.414;9.118;2023-06-10T15:46:27;6.00;;;3.95;;
1154;SDS011;566;48.414;9.118;2023-06-10T15:48:53;6.15;;;3.65;;
1154;SDS011;566;48.414;9.118;2023-06-10T15:51:19;6.78;;;4.47;;